Time;durP1;ratioP1;P1;durP2;ratioP2;P2;SDS_P1;SDS_P2;PMS_P1;PMS_P2;Temp;Humidity;BMP_temperature;BMP_pressure;BME280_temperature;BME280_humidity;BME280_pressure;Samples;Min_cycle;Max_cycle;Signal;HPM_P1;HPM_P2
2022/06/19 00:01:18;;;;;;;4.47;3.05;;;;;;;20.43;38.29;98802.94;5154845;27;20054;-91
2022/06/19 00:03:54;;;;;;;5.47;2.97;;;;;;;20.68;38.09;98834.59;5153180;27;20115;-95
2022/06/19 00:06:27;;;;;;;8.65;2.90;;;;;;;20.73;37.61;98835.13;5158056;27;20071;-93
2022/06/19 00:08:55;;;;;;;3.65;2.80;;;;;;;20.68;37.00;98808.44;5155725;27;20050;-90
2022/06/19 00:11:23;;;;;;;4.40;3.00;;;;;;;20.72;36.87;98801.00;5153274;27;20076;-90
2022/06/19 00:14:00;;;;;;;3.83;2.65;;;;;;;20.77;36.92;98793.41;5153647;27;20043;-90
2022/06/19 00:16:35;;;;;;;4.00;2.92;;;;;;;20.98;37.35;98839.75;5151822;27;20039;-92
2022/06/19 00:19:13;;;;;;;5.55;2.83;;;;;;;20.72;37.17;98785.63;5129512;27;20046;-92
2022/06/19 00:21:41;;;;;;;3.80;2.78;;;;;;;20.74;37.34;98793.66;5138547;27;20054;-91
2022/06/19 00:24:11;;;;;;;3.88;2.60;;;;;;;20.70;37.13;98778.59;5142000;27;20046;-92
2022/06/19 00:26:41;;;;;;;5.43;2.92;;;;;;;20.79;37.54;98788.78;5141017;27;20031;-93
2022/06/19 00:29:10;;;;;;;4.95;2.90;;;;;;;20.63;37.75;98761.09;5129438;27;20035;-90
2022/06/19 00:31:44;;;;;;;;;;;;;;;20.79;37.52;98802.28;5141551;27;20051;-91
2022/06/19 00:34:20;;;;;;;3.92;2.65;;;;;;;20.51;38.19;98773.56;5140173;27;19941;-91
2022/06/19 00:36:52;;;;;;;3.70;2.58;;;;;;;20.42;38.20;98775.03;5141634;27;20039;-95
2022/06/19 00:39:23;;;;;;;6.07;2.95;;;;;;;20.37;38.51;98776.34;5142756;27;20122;-92
2022/06/19 00:41:54;;;;;;;4.55;3.15;;;;;;;20.33;38.72;98764.00;5140615;27;20067;-92
2022/06/19 00:47:20;;;;;;;4.53;3.00;;;;;;;20.20;39.36;98764.81;5121489;27;20036;-91
2022/06/19 00:49:51;;;;;;;6.43;3.17;;;;;;;20.00;39.45;98768.00;5139495;27;20100;-93
2022/06/19 00:52:21;;;;;;;3.97;2.95;;;;;;;19.86;40.35;98785.06;5137816;27;20039;-95
2022/06/19 00:55:11;;;;;;;5.67;3.00;;;;;;;19.59;40.74;98756.19;5139242;27;20046;-92
2022/06/19 00:57:46;;;;;;;4.63;3.10;;;;;;;19.49;41.02;98761.28;5139569;27;20096;-94
2022/06/19 01:00:24;;;;;;;4.03;2.90;;;;;;;19.30;41.62;98758.03;5139984;27;20067;-92
2022/06/19 01:03:14;;;;;;;4.68;3.10;;;;;;;19.24;42.48;98764.69;5139296;27;20051;-92
2022/06/19 01:05:46;;;;;;;4.10;2.80;;;;;;;19.15;42.41;98753.59;5139022;27;20054;-93
2022/06/19 01:08:24;;;;;;;6.97;3.00;;;;;;;19.20;41.42;98749.66;5141758;27;20075;-93
2022/06/19 01:11:37;;;;;;;4.72;3.17;;;;;;;19.37;41.19;98756.69;5141128;27;20054;-92
2022/06/19 01:14:22;;;;;;;;;;;;;;;;;;;;;
2022/06/19 01:17:13;;;;;;;3.50;2.80;;;;;;;19.49;40.68;98753.19;5087826;28;20052;-91
2022/06/19 01:19:50;;;;;;;4.88;3.00;;;;;;;19.62;40.79;98768.59;5096232;28;20052;-91
2022/06/19 01:22:31;;;;;;;3.70;2.80;;;;;;;19.49;40.97;98749.63;5094491;28;20485;-91
2022/06/19 01:25:25;;;;;;;4.22;3.00;;;;;;;19.55;40.94;98761.88;5087618;28;20063;-94
2022/06/19 01:41:32;;;;;;;4.45;3.05;;;;;;;19.06;44.84;98764.00;5100491;27;20395;-90
2022/06/19 01:44:10;;;;;;;3.97;3.00;;;;;;;18.91;45.43;98772.16;5093724;28;20082;-91
2022/06/19 01:46:42;;;;;;;6.43;3.20;;;;;;;18.82;46.04;98789.75;5107526;28;20093;-89
2022/06/19 01:49:14;;;;;;;4.30;3.20;;;;;;;18.61;47.17;98768.50;5085093;28;20429;-92
2022/06/19 01:51:52;;;;;;;4.50;3.35;;;;;;;18.34;47.44;98778.22;5081276;28;20041;-90
2022/06/19 01:58:24;;;;;;;7.55;4.55;;;;;;;17.92;48.46;98783.31;5082430;28;20036;-92
2022/06/19 02:01:10;;;;;;;4.30;2.95;;;;;;;17.75;47.62;98788.72;5089126;28;20127;-90
2022/06/19 02:04:00;;;;;;;3.70;3.03;;;;;;;17.65;48.09;98781.19;5087106;28;20037;-92
2022/06/19 02:06:40;;;;;;;3.60;3.03;;;;;;;17.76;46.37;98777.91;5091129;28;20045;-93
2022/06/19 02:09:10;;;;;;;4.30;3.28;;;;;;;18.16;45.09;98764.88;5086480;28;20033;-93
2022/06/19 02:11:53;;;;;;;5.10;3.05;;;;;;;18.54;44.56;98788.69;5091487;28;20123;-92
2022/06/19 02:14:25;;;;;;;4.53;2.90;;;;;;;18.35;46.44;98794.28;5084100;28;20690;-91
2022/06/19 02:16:52;;;;;;;3.60;2.97;;;;;;;18.37;46.94;98805.84;5083509;28;20525;-90
2022/06/19 02:19:34;;;;;;;3.83;2.90;;;;;;;18.14;46.98;98776.69;5093552;28;20040;-92
2022/06/19 02:22:39;;;;;;;3.53;2.90;;;;;;;17.91;48.06;98776.16;5089686;28;20036;-92
2022/06/19 02:25:17;;;;;;;3.92;3.05;;;;;;;17.70;48.51;98780.94;5090510;28;20068;-91
2022/06/19 02:27:44;;;;;;;4.75;3.08;;;;;;;17.63;49.44;98798.34;5088396;28;20115;-93
2022/06/19 02:30:15;;;;;;;4.00;2.90;;;;;;;17.39;49.95;98774.56;5085376;28;20064;-91
2022/06/19 02:32:47;;;;;;;4.70;3.10;;;;;;;17.34;51.55;98800.81;5085308;28;20127;-93
2022/06/19 02:35:18;;;;;;;4.43;2.95;;;;;;;17.19;51.65;98769.38;5089473;28;20044;-90
2022/06/19 02:38:05;;;;;;;4.10;2.92;;;;;;;17.13;52.59;98783.16;5084912;28;20105;-92
2022/06/19 02:40:53;;;;;;;4.05;2.85;;;;;;;17.17;51.37;98788.28;5089439;28;20041;-92
2022/06/19 02:43:42;;;;;;;3.97;3.00;;;;;;;17.15;51.68;98816.19;5082884;28;20040;-92
2022/06/19 02:46:36;;;;;;;5.55;3.10;;;;;;;16.80;52.42;98776.78;5056034;28;20518;-90
2022/06/19 02:49:05;;;;;;;4.15;3.08;;;;;;;16.69;51.94;98767.53;5073817;28;20056;-90
2022/06/19 02:51:36;;;;;;;4.00;3.05;;;;;;;16.73;52.04;98783.41;5074404;28;20048;-92
2022/06/19 02:54:04;;;;;;;3.78;3.00;;;;;;;16.80;52.75;98802.78;5073667;28;20481;-93
2022/06/19 02:56:43;;;;;;;4.88;3.25;;;;;;;16.89;52.25;98805.00;5073330;28;20048;-91
2022/06/19 02:59:17;;;;;;;5.05;2.97;;;;;;;16.88;51.47;98797.91;5069920;28;20438;-91
2022/06/19 03:01:58;;;;;;;4.40;3.50;;;;;;;16.94;49.63;98781.47;5075640;28;20055;-93
2022/06/19 03:04:33;;;;;;;4.03;2.80;;;;;;;16.83;51.06;98757.84;5072334;28;20032;-91
2022/06/19 03:07:05;;;;;;;4.57;2.88;;;;;;;16.97;51.07;98781.28;5067351;28;20053;-92
2022/06/19 03:10:00;;;;;;;3.90;2.95;;;;;;;16.97;51.80;98767.84;5075056;28;20102;-90
2022/06/19 03:12:32;;;;;;;4.07;3.10;;;;;;;17.02;52.74;98792.69;5069278;28;20067;-90
2022/06/19 03:15:11;;;;;;;7.32;3.28;;;;;;;16.84;53.90;98764.94;5067925;28;20048;-91
2022/06/19 03:17:48;;;;;;;4.75;3.30;;;;;;;17.04;54.19;98808.69;5067582;28;20043;-93
2022/06/19 03:20:18;;;;;;;4.30;3.20;;;;;;;16.70;54.59;98769.25;5069148;28;20047;-91
2022/06/19 03:22:49;;;;;;;3.90;3.20;;;;;;;16.57;55.72;98769.06;5068446;28;20037;-89
2022/06/19 03:25:38;;;;;;;4.38;3.33;;;;;;;16.71;55.66;98813.97;5067610;28;20505;-92
2022/06/19 03:28:32;;;;;;;5.03;3.40;;;;;;;16.32;56.43;98774.78;5071450;28;20041;-91
2022/06/19 03:31:09;;;;;;;3.95;3.00;;;;;;;16.16;56.53;98780.94;5074182;28;20064;-92
2022/06/19 03:33:52;;;;;;;4.57;3.30;;;;;;;16.01;56.57;98770.97;5072871;28;20608;-90
2022/06/19 03:36:27;;;;;;;3.80;2.88;;;;;;;16.02;56.37;98770.00;5071013;28;20071;-90
2022/06/19 03:38:59;;;;;;;3.78;3.20;;;;;;;15.99;55.66;98759.44;5071513;28;20132;-92
2022/06/19 03:41:34;;;;;;;5.20;3.40;;;;;;;15.88;56.25;98757.28;5066984;28;20049;-90
2022/06/19 03:44:29;;;;;;;4.28;2.97;;;;;;;15.97;55.02;98762.19;5072273;28;20509;-93
2022/06/19 03:47:22;;;;;;;4.00;3.30;;;;;;;16.15;55.15;98760.41;5072129;28;20107;-92
2022/06/19 03:49:58;;;;;;;3.70;2.88;;;;;;;16.43;53.10;98756.31;5066232;28;20060;-90
2022/06/19 03:52:24;;;;;;;4.50;3.35;;;;;;;16.69;54.38;98780.97;5070969;28;20044;-92
2022/06/19 03:54:59;;;;;;;5.13;3.10;;;;;;;16.68;54.76;98780.09;5068951;28;20040;-91
2022/06/19 03:57:33;;;;;;;4.55;3.42;;;;;;;16.76;55.29;98801.19;5068543;28;20068;-93
2022/06/19 04:00:11;;;;;;;4.53;3.20;;;;;;;16.48;56.05;98770.41;5068601;28;20064;-93
2022/06/19 04:02:37;;;;;;;4.63;3.50;;;;;;;16.36;57.11;98773.69;5067192;28;20112;-91
2022/06/19 04:05:29;;;;;;;5.80;3.60;;;;;;;16.38;57.55;98810.25;5069618;28;20044;-92
2022/06/19 04:08:07;;;;;;;4.13;3.22;;;;;;;16.19;59.01;98815.66;5059190;28;20109;-92
2022/06/19 04:10:45;;;;;;;5.67;3.73;;;;;;;15.97;59.57;98789.00;5070538;28;20056;-90
2022/06/19 04:13:34;;;;;;;5.95;3.60;;;;;;;15.86;60.20;98788.66;5064124;28;20100;-92
2022/06/19 04:16:01;;;;;;;5.22;3.70;;;;;;;15.97;61.03;98820.34;5066758;28;20102;-94
2022/06/19 04:18:59;;;;;;;4.60;3.72;;;;;;;15.70;61.42;98787.63;5055476;28;20102;-91
2022/06/19 04:21:52;;;;;;;4.70;3.63;;;;;;;15.95;60.51;98812.34;5072083;28;20041;-91
2022/06/19 04:24:44;;;;;;;4.75;3.50;;;;;;;15.85;61.43;98824.44;5070598;28;20111;-92
2022/06/19 04:27:18;;;;;;;5.50;3.78;;;;;;;15.55;62.73;98789.25;5064089;28;20068;-91
2022/06/19 04:30:46;;;;;;;;;;;;;;;;;;;;;
2022/06/19 04:34:02;;;;;;;5.43;3.67;;;;;;;15.77;63.90;98827.53;5060009;28;20041;-92
2022/06/19 04:40:19;;;;;;;7.22;3.83;;;;;;;15.64;65.88;98815.59;5048550;28;20061;-92
2022/06/19 04:43:26;;;;;;;4.15;3.45;;;;;;;15.82;63.80;98838.03;5067829;28;20041;-93
2022/06/19 04:50:36;;;;;;;4.60;3.50;;;;;;;15.94;63.27;98816.00;5071600;28;20131;-91
2022/06/19 04:53:18;;;;;;;4.20;3.70;;;;;;;16.98;60.85;98811.69;5066581;28;20040;-91
2022/06/19 04:56:37;;;;;;;;;;;;;;;;;;;;;
2022/06/19 04:59:40;;;;;;;5.07;3.83;;;;;;;19.05;53.59;98836.84;5067013;28;20491;-90
2022/06/19 05:02:15;;;;;;;5.18;3.80;;;;;;;19.29;51.94;98829.94;5061900;28;20398;-90
2022/06/19 05:04:42;;;;;;;6.63;3.90;;;;;;;19.67;50.84;98818.59;5066107;28;20140;-89
2022/06/19 05:07:14;;;;;;;4.13;3.40;;;;;;;20.01;48.76;98818.28;5066048;28;20040;-91
2022/06/19 05:09:40;;;;;;;4.93;3.58;;;;;;;20.41;48.39;98821.09;5068170;28;20051;-91
2022/06/19 05:12:43;;;;;;;4.93;3.50;;;;;;;20.90;46.33;98842.09;5049296;28;20418;-91
2022/06/19 05:15:16;;;;;;;5.13;4.13;;;;;;;20.71;46.52;98816.34;5061420;28;20048;-93
2022/06/19 05:17:47;;;;;;;4.85;3.33;;;;;;;21.02;46.50;98830.47;5065027;28;20048;-92
2022/06/19 05:20:30;;;;;;;4.75;3.33;;;;;;;20.98;46.76;98823.53;5067396;28;20033;-92
2022/06/19 05:23:16;;;;;;;4.75;3.50;;;;;;;21.09;47.07;98817.38;5062828;28;20051;-91
2022/06/19 05:25:46;;;;;;;4.38;3.40;;;;;;;21.17;47.67;98836.66;5068614;28;20036;-91
2022/06/19 05:28:39;;;;;;;6.25;3.53;;;;;;;21.43;46.83;98859.19;5070436;28;20375;-91
2022/06/19 05:31:35;;;;;;;4.90;3.40;;;;;;;21.47;46.55;98857.13;5066849;28;20037;-91
2022/06/19 05:34:31;;;;;;;5.13;3.60;;;;;;;21.41;46.24;98841.31;5061032;28;20040;-94
2022/06/19 05:37:05;;;;;;;4.45;3.40;;;;;;;21.69;45.17;98824.00;5068568;28;20040;-92
2022/06/19 05:39:37;;;;;;;6.53;3.90;;;;;;;21.65;44.84;98823.34;5069260;28;20040;-93
2022/06/19 05:42:43;;;;;;;5.32;3.35;;;;;;;21.77;44.77;98816.19;5071328;28;20551;-91
2022/06/19 05:45:17;;;;;;;5.97;3.67;;;;;;;21.81;44.60;98830.38;5067226;28;20029;-92
2022/06/19 05:47:52;;;;;;;5.50;3.40;;;;;;;21.94;45.60;98823.09;5071034;28;20067;-92
2022/06/19 05:50:27;;;;;;;6.50;3.80;;;;;;;20.99;48.17;98832.50;5069090;28;20120;-93
2022/06/19 05:53:15;;;;;;;5.68;4.00;;;;;;;20.89;47.71;98835.84;5067480;28;20044;-92
2022/06/19 05:55:50;;;;;;;7.65;3.80;;;;;;;20.91;47.98;98833.91;5065911;28;20049;-91
2022/06/19 05:58:23;;;;;;;5.05;3.65;;;;;;;21.39;46.86;98859.50;5065894;28;20037;-92
2022/06/19 06:01:04;;;;;;;4.03;3.47;;;;;;;21.66;47.04;98859.41;5067770;28;20053;-93
2022/06/19 06:03:42;;;;;;;5.90;3.78;;;;;;;21.68;45.22;98830.38;5068579;28;20098;-91
2022/06/19 06:06:15;;;;;;;5.18;4.10;;;;;;;21.83;44.49;98840.09;5071072;28;20067;-92
2022/06/19 06:08:48;;;;;;;4.72;3.63;;;;;;;21.39;43.34;98849.53;5069056;28;20068;-90
2022/06/19 06:11:22;;;;;;;5.50;3.78;;;;;;;21.60;43.45;98849.00;5071753;28;20485;-92
2022/06/19 06:14:07;;;;;;;4.78;3.47;;;;;;;21.80;42.99;98845.75;5066523;28;20032;-93
2022/06/19 06:16:56;;;;;;;5.05;3.40;;;;;;;21.44;44.42;98850.09;5074778;28;20693;-93
2022/06/19 06:19:28;;;;;;;5.07;3.65;;;;;;;21.68;44.28;98847.47;5067637;28;20036;-95
2022/06/19 06:22:14;;;;;;;5.63;3.33;;;;;;;21.93;44.38;98852.00;5075497;28;20039;-92
2022/06/19 06:24:48;;;;;;;4.88;3.72;;;;;;;21.36;43.78;98857.88;5079670;28;20086;-93
2022/06/19 06:28:11;;;;;;;5.13;3.72;;;;;;;21.24;43.71;98850.59;5073371;28;20387;-91
2022/06/19 06:35:27;;;;;;;4.75;3.50;;;;;;;21.23;44.16;98868.69;4985029;28;20069;-93
2022/06/19 06:38:17;;;;;;;5.53;3.60;;;;;;;21.93;42.19;98870.97;5029304;28;20037;-91
2022/06/19 06:40:47;;;;;;;5.72;3.63;;;;;;;22.41;42.26;98894.59;5029345;28;20037;-94
2022/06/19 06:43:23;;;;;;;4.30;3.33;;;;;;;22.65;41.42;98864.81;5023353;28;20081;-90
2022/06/19 06:46:04;;;;;;;3.75;3.17;;;;;;;22.94;40.74;98869.84;5027239;28;20041;-92
2022/06/19 06:48:30;;;;;;;5.25;3.33;;;;;;;23.20;39.31;98867.88;5022213;28;20042;-92
2022/06/19 06:51:15;;;;;;;4.97;3.40;;;;;;;23.11;39.18;98858.59;5031774;28;20092;-91
2022/06/19 06:53:41;;;;;;;4.90;3.40;;;;;;;23.56;38.67;98885.00;5024480;28;20089;-92
2022/06/19 06:56:15;;;;;;;4.85;3.50;;;;;;;23.51;39.19;98841.06;5025081;28;20065;-91
2022/06/19 06:58:40;;;;;;;17.42;4.43;;;;;;;23.64;39.10;98852.69;5020896;28;20490;-90
2022/06/19 07:01:13;;;;;;;7.70;3.20;;;;;;;23.29;38.55;98848.19;5030547;28;20088;-90
2022/06/19 07:03:45;;;;;;;4.30;3.10;;;;;;;23.54;37.34;98849.81;5028989;28;20099;-93
2022/06/19 07:06:19;;;;;;;4.15;3.13;;;;;;;23.79;38.44;98853.34;5032198;28;20574;-94
2022/06/19 07:08:58;;;;;;;5.07;3.33;;;;;;;24.24;37.11;98888.63;5070220;28;20041;-91
2022/06/19 07:11:47;;;;;;;4.60;3.05;;;;;;;24.35;38.12;98866.88;5057399;28;20150;-93
2022/06/19 07:15:41;;;;;;;;;;;;;;;;;;;;;
2022/06/19 07:21:59;;;;;;;5.10;3.30;;;;;;;24.96;35.13;98879.97;5008939;28;20515;-91
2022/06/19 07:25:12;;;;;;;5.60;3.10;;;;;;;24.97;35.74;98842.72;5005084;28;20045;-91
2022/06/19 07:27:53;;;;;;;3.78;3.10;;;;;;;25.00;34.95;98842.44;5021511;28;20593;-94
2022/06/19 07:31:00;;;;;;;3.50;3.00;;;;;;;24.19;36.75;98836.50;5002179;28;20061;-94
2022/06/19 07:35:12;;;;;;;3.88;3.38;;;;;;;24.32;35.97;98830.94;5019339;28;20050;-93
2022/06/19 07:37:28;;;;;;;4.90;3.28;;;;;;;24.30;35.96;98868.25;4988876;28;20057;-95
2022/06/19 07:40:43;;;;;;;3.70;3.03;;;;;;;24.59;35.64;98871.28;5003428;28;20050;-93
2022/06/19 07:43:56;;;;;;;4.43;3.17;;;;;;;25.15;34.80;98862.91;5021505;28;20042;-93
2022/06/19 07:46:24;;;;;;;4.35;3.45;;;;;;;25.25;33.61;98807.72;5024615;28;20389;-92
2022/06/19 07:52:14;;;;;;;5.50;3.30;;;;;;;25.99;32.79;98826.59;5172909;27;20122;-93
2022/06/19 07:54:42;;;;;;;4.78;3.47;;;;;;;26.20;33.29;98807.47;5148713;27;20059;-93
2022/06/19 07:57:22;;;;;;;4.90;3.42;;;;;;;26.36;32.60;98809.63;5140884;27;20566;-91
2022/06/19 07:59:48;;;;;;;4.57;3.53;;;;;;;26.44;32.49;98824.28;5146125;27;20042;-92
2022/06/19 08:02:17;;;;;;;4.35;3.72;;;;;;;26.00;32.94;98810.13;5142110;27;20423;-94
2022/06/19 08:04:45;;;;;;;;;;;;;;;26.28;32.43;98847.63;5146142;27;20373;-91
2022/06/19 08:07:14;;;;;;;49.40;8.00;;;;;;;26.57;32.46;98834.97;5142876;27;19920;-91
2022/06/19 08:09:40;;;;;;;25.33;5.05;;;;;;;26.86;32.25;98838.72;5143013;27;20039;-92
2022/06/19 08:12:10;;;;;;;5.80;3.70;;;;;;;26.82;30.61;98814.41;5143711;27;20467;-91
2022/06/19 08:14:39;;;;;;;5.50;3.38;;;;;;;26.95;31.12;98816.00;5143419;27;20043;-90
2022/06/19 08:17:06;;;;;;;4.22;3.50;;;;;;;27.06;31.61;98802.19;5141902;27;20407;-89
2022/06/19 08:19:41;;;;;;;5.43;3.53;;;;;;;27.47;30.83;98830.19;5139893;27;20031;-94
2022/06/19 08:22:07;;;;;;;5.13;3.38;;;;;;;27.35;30.06;98801.34;5142208;27;20051;-91
2022/06/19 08:24:34;;;;;;;5.18;3.45;;;;;;;27.33;30.10;98800.63;5138024;27;20048;-92
2022/06/19 08:27:04;;;;;;;4.18;3.42;;;;;;;27.13;30.23;98830.66;5142741;27;20039;-91
2022/06/19 08:29:31;;;;;;;3.95;3.38;;;;;;;27.28;30.89;98838.41;5146241;27;20055;-91
2022/06/19 08:31:57;;;;;;;4.00;3.30;;;;;;;27.58;31.35;98823.69;5140104;27;20434;-93
2022/06/19 08:34:27;;;;;;;4.57;3.20;;;;;;;27.52;30.38;98802.41;5142999;27;20067;-87
2022/06/19 08:36:56;;;;;;;9.35;3.58;;;;;;;27.64;30.31;98791.16;5141062;27;20061;-89
2022/06/19 08:39:22;;;;;;;5.90;3.30;;;;;;;27.92;29.45;98824.03;5142606;27;20403;-88
2022/06/19 08:42:17;;;;;;;4.45;3.50;;;;;;;27.94;29.93;98789.22;5138940;27;20066;-88
2022/06/19 08:45:18;;;;;;;7.03;3.67;;;;;;;28.01;28.85;98820.38;5142503;27;20031;-90
2022/06/19 08:48:01;;;;;;;5.15;3.65;;;;;;;27.09;30.52;98812.84;5135433;27;20051;-91
2022/06/19 08:50:40;;;;;;;4.60;3.72;;;;;;;27.07;30.79;98801.22;5141733;27;20074;-93
2022/06/19 08:53:31;;;;;;;4.10;3.53;;;;;;;27.43;31.60;98785.06;5141446;27;20035;-91
2022/06/19 08:56:01;;;;;;;5.95;3.90;;;;;;;27.96;30.65;98805.47;5144906;27;20078;-91
2022/06/19 08:59:01;;;;;;;4.82;3.70;;;;;;;28.18;29.33;98796.84;5142498;27;20039;-90
2022/06/19 09:01:43;;;;;;;4.88;4.18;;;;;;;28.43;31.06;98800.72;5140176;27;20035;-90
2022/06/19 09:07:53;;;;;;;4.82;3.70;;;;;;;28.90;30.15;98799.66;5161864;27;20380;-90
2022/06/19 09:10:34;;;;;;;6.30;3.97;;;;;;;28.54;29.71;98782.38;5144334;27;20139;-94
2022/06/19 09:13:28;;;;;;;5.70;4.22;;;;;;;28.60;30.52;98796.28;5146787;27;20031;-92
2022/06/19 09:16:03;;;;;;;11.45;4.70;;;;;;;28.43;31.38;98794.38;5151010;27;20040;-90
2022/06/19 09:18:44;;;;;;;5.00;4.10;;;;;;;28.84;30.86;98795.69;5150368;27;20511;-90
2022/06/19 09:21:15;;;;;;;5.65;4.10;;;;;;;29.18;30.39;98805.91;5141456;27;20069;-90
2022/06/19 09:24:27;;;;;;;7.10;4.35;;;;;;;28.78;30.09;98815.47;5145520;27;20131;-92
2022/06/19 09:26:56;;;;;;;6.28;4.20;;;;;;;28.98;30.55;98804.34;5143626;27;20475;-89
2022/06/19 09:29:30;;;;;;;5.20;4.20;;;;;;;28.29;29.91;98808.59;5143040;27;20039;-94
2022/06/19 09:32:08;;;;;;;4.75;4.07;;;;;;;28.42;30.77;98785.31;5140334;27;20565;-93
2022/06/19 09:34:44;;;;;;;6.75;4.15;;;;;;;28.62;30.67;98801.59;5139084;27;21710;-91
2022/06/19 09:37:16;;;;;;;4.72;4.22;;;;;;;28.49;29.75;98774.63;5138898;27;20119;-92
2022/06/19 09:39:50;;;;;;;7.15;4.10;;;;;;;28.46;31.77;98802.28;5142441;27;20126;-91
2022/06/19 09:42:24;;;;;;;5.72;3.95;;;;;;;27.90;31.12;98779.59;5138564;27;20095;-92
2022/06/19 09:45:01;;;;;;;6.80;4.10;;;;;;;28.32;30.53;98795.44;5139739;27;20042;-90
2022/06/19 09:47:33;;;;;;;5.13;4.20;;;;;;;28.55;30.81;98795.06;5142743;27;20031;-90
2022/06/19 09:50:06;;;;;;;6.78;4.60;;;;;;;28.76;30.96;98778.31;5145782;27;20478;-89
2022/06/19 09:52:37;;;;;;;5.18;4.13;;;;;;;29.16;29.62;98793.38;5142454;27;20051;-91
2022/06/19 09:55:10;;;;;;;5.13;4.25;;;;;;;29.42;29.19;98794.25;5136781;27;20053;-91
2022/06/19 09:57:45;;;;;;;7.75;3.80;;;;;;;29.29;27.52;98805.63;5142538;27;20046;-91
2022/06/19 10:00:21;;;;;;;6.32;4.00;;;;;;;29.34;29.22;98783.22;5137984;27;20515;-92
2022/06/19 10:02:52;;;;;;;5.38;4.47;;;;;;;29.32;28.86;98776.22;5140111;27;20059;-92
2022/06/19 10:05:29;;;;;;;7.93;4.47;;;;;;;29.58;28.11;98774.34;5140714;27;20031;-92
2022/06/19 10:08:02;;;;;;;5.32;4.28;;;;;;;29.35;29.53;98781.38;5139262;27;20118;-90
2022/06/19 10:10:35;;;;;;;5.45;4.28;;;;;;;29.26;29.29;98766.78;5141454;27;20031;-92
2022/06/19 10:13:14;;;;;;;6.72;3.80;;;;;;;29.09;28.10;98774.00;5140844;27;20046;-91
2022/06/19 10:15:41;;;;;;;;;;;;;;;29.28;27.39;98792.97;5142277;27;20043;-88
2022/06/19 10:18:14;;;;;;;6.47;4.20;;;;;;;29.50;27.98;98782.50;5128165;27;19919;-92
2022/06/19 10:20:52;;;;;;;6.20;4.30;;;;;;;29.74;27.63;98770.00;5127946;27;20047;-91
2022/06/19 10:23:29;;;;;;;5.68;4.05;;;;;;;30.04;26.12;98766.69;5125454;27;20047;-91
2022/06/19 10:26:11;;;;;;;6.28;4.28;;;;;;;30.09;26.65;98763.44;5127334;27;20063;-89
2022/06/19 10:29:06;;;;;;;5.10;4.28;;;;;;;30.09;27.37;98747.84;5125870;27;20081;-90
2022/06/19 10:31:54;;;;;;;7.07;4.10;;;;;;;30.20;27.03;98740.34;5109189;27;20043;-88
2022/06/19 10:34:34;;;;;;;4.80;4.10;;;;;;;30.46;27.23;98765.78;5129836;27;20059;-91
2022/06/19 10:37:13;;;;;;;4.82;4.18;;;;;;;30.12;27.09;98757.59;5123823;27;20467;-90
2022/06/19 10:39:58;;;;;;;5.47;4.45;;;;;;;29.45;27.28;98735.53;5125780;27;20392;-92
2022/06/19 10:42:39;;;;;;;5.43;3.95;;;;;;;29.84;28.13;98746.03;5124535;27;20122;-90
2022/06/19 10:45:33;;;;;;;7.55;4.07;;;;;;;30.03;27.23;98744.91;5126106;27;21520;-90
2022/06/19 10:48:12;;;;;;;4.88;3.80;;;;;;;30.16;27.90;98738.94;5118889;27;20071;-92
2022/06/19 10:50:46;;;;;;;5.15;3.90;;;;;;;30.30;26.39;98741.09;5127966;27;20124;-90
2022/06/19 10:53:24;;;;;;;4.55;3.88;;;;;;;29.57;27.02;98750.69;5126851;27;20028;-89
2022/06/19 10:55:53;;;;;;;;;;;;;;;29.82;28.03;98750.81;5125356;27;20031;-92
2022/06/19 10:58:23;;;;;;;4.47;3.90;;;;;;;29.57;27.34;98715.06;5128540;27;19937;-91
2022/06/19 11:00:52;;;;;;;5.28;3.53;;;;;;;29.92;25.49;98740.59;5122442;27;20042;-92
2022/06/19 11:06:28;;;;;;;4.28;3.72;;;;;;;30.29;26.00;98714.66;5144599;27;20804;-90
2022/06/19 11:09:01;;;;;;;6.00;3.80;;;;;;;30.37;25.38;98711.94;5146815;27;20043;-92
2022/06/19 11:11:33;;;;;;;5.57;3.60;;;;;;;30.14;23.45;98714.41;5139246;27;20422;-90
2022/06/19 11:14:04;;;;;;;4.88;3.88;;;;;;;30.08;22.49;98717.88;5144517;27;20487;-92
2022/06/19 11:16:32;;;;;;;5.60;3.80;;;;;;;30.17;23.57;98719.59;5154265;27;20391;-88
2022/06/19 11:18:58;;;;;;;6.72;3.72;;;;;;;29.82;25.47;98724.28;5147780;27;20038;-91
2022/06/19 11:21:29;;;;;;;5.28;4.07;;;;;;;29.60;25.31;98692.81;5143776;27;20031;-88
2022/06/19 11:23:57;;;;;;;5.00;3.90;;;;;;;29.79;24.29;98701.81;5146554;27;20067;-88
2022/06/19 11:26:26;;;;;;;4.47;3.53;;;;;;;29.91;25.47;98697.75;5139687;27;20067;-89
2022/06/19 11:28:57;;;;;;;4.25;3.75;;;;;;;30.08;24.81;98721.47;5145349;27;20126;-90
2022/06/19 11:31:28;;;;;;;7.85;3.90;;;;;;;30.30;25.95;98721.88;5145629;27;20046;-88
2022/06/19 11:34:01;;;;;;;5.50;3.70;;;;;;;30.44;24.71;98690.16;5145974;27;20038;-91
2022/06/19 11:36:36;;;;;;;5.97;3.70;;;;;;;30.48;23.34;98689.66;5143622;27;20522;-90
2022/06/19 11:39:34;;;;;;;5.28;3.50;;;;;;;30.27;22.14;98675.53;5144568;27;20043;-91
2022/06/19 11:42:17;;;;;;;;;;;;;;;30.68;22.60;98706.63;5142794;27;20042;-88
2022/06/19 11:44:50;;;;;;;4.10;3.60;;;;;;;30.77;23.52;98698.41;5145418;27;19927;-87
2022/06/19 11:47:18;;;;;;;6.03;3.50;;;;;;;30.89;22.91;98694.31;5147666;27;20039;-88
2022/06/19 11:49:44;;;;;;;;;;;;;;;30.74;21.65;98707.00;5145242;27;20067;-91
2022/06/19 11:52:20;;;;;;;4.60;3.05;;;;;;;30.76;22.00;98677.47;5146519;27;19919;-90
2022/06/19 11:54:51;;;;;;;3.65;3.10;;;;;;;30.54;21.82;98670.81;5142585;27;20035;-90
2022/06/19 11:57:25;;;;;;;3.45;2.97;;;;;;;30.90;22.70;98696.00;5146216;27;20035;-89
2022/06/19 12:00:02;;;;;;;4.10;3.23;;;;;;;30.62;20.86;98681.75;5149916;27;20031;-89
2022/06/19 12:02:34;;;;;;;4.25;3.10;;;;;;;30.82;20.94;98674.03;5144669;27;20043;-91
2022/06/19 12:05:22;;;;;;;3.80;3.15;;;;;;;30.82;21.08;98668.56;5144177;27;20081;-91
2022/06/19 12:07:56;;;;;;;4.65;2.90;;;;;;;31.16;21.02;98686.69;5143974;27;20046;-89
2022/06/19 12:10:35;;;;;;;3.70;2.80;;;;;;;30.44;19.06;98676.44;5147772;27;20035;-91
2022/06/19 12:13:19;;;;;;;3.67;2.75;;;;;;;30.64;20.50;98660.47;5138982;27;20057;-91
2022/06/19 12:16:09;;;;;;;3.85;2.95;;;;;;;31.08;20.19;98671.97;5134309;27;20044;-91
2022/06/19 12:18:38;;;;;;;4.57;2.77;;;;;;;31.14;20.17;98650.31;5137647;27;20122;-93
2022/06/19 12:21:30;;;;;;;;;;;;;;;;;;;;;
2022/06/19 12:24:46;;;;;;;4.07;3.10;;;;;;;31.48;20.55;98650.91;5127475;27;20043;-90
2022/06/19 12:27:35;;;;;;;4.20;2.90;;;;;;;31.49;19.78;98649.03;5132921;27;20045;-90
2022/06/19 12:30:18;;;;;;;4.40;2.70;;;;;;;31.63;19.24;98659.25;5135812;27;20055;-90
2022/06/19 12:32:50;;;;;;;3.75;2.72;;;;;;;31.42;18.28;98653.47;5139243;27;20039;-90
2022/06/19 12:35:33;;;;;;;3.53;2.50;;;;;;;31.31;19.07;98636.34;5132651;27;20103;-88
2022/06/19 12:38:10;;;;;;;4.07;2.80;;;;;;;31.10;18.99;98622.38;5133028;27;20036;-92
2022/06/19 12:41:04;;;;;;;3.97;3.00;;;;;;;31.39;20.45;98626.38;5129141;27;20051;-90
2022/06/19 12:43:45;;;;;;;4.15;3.10;;;;;;;31.53;19.77;98628.38;5131537;27;20089;-91
2022/06/19 12:46:45;;;;;;;4.53;3.00;;;;;;;31.77;20.18;98627.38;5119644;27;20047;-91
2022/06/19 12:49:28;;;;;;;3.90;3.10;;;;;;;31.81;19.85;98642.50;5130415;27;20697;-90
2022/06/19 12:51:58;;;;;;;4.30;3.20;;;;;;;31.83;20.05;98628.56;5133507;27;20043;-87
2022/06/19 12:54:54;;;;;;;4.45;3.17;;;;;;;31.86;19.54;98630.97;5131652;27;20032;-90
2022/06/19 12:57:43;;;;;;;5.47;3.10;;;;;;;31.97;20.24;98626.94;5129053;27;20095;-91
2022/06/19 13:00:32;;;;;;;3.65;3.10;;;;;;;31.90;20.29;98611.19;5131843;27;20067;-93
2022/06/19 13:03:28;;;;;;;4.68;3.13;;;;;;;31.87;19.64;98603.28;5130804;27;20064;-90
2022/06/19 13:06:06;;;;;;;4.97;3.13;;;;;;;31.80;18.58;98604.19;5130377;27;20063;-92
2022/06/19 13:08:41;;;;;;;3.60;3.20;;;;;;;31.96;20.09;98617.81;5129454;27;20497;-92
2022/06/19 13:11:23;;;;;;;4.63;2.97;;;;;;;32.10;19.63;98624.50;5129507;27;20039;-90
2022/06/19 13:14:21;;;;;;;3.42;3.00;;;;;;;31.70;18.79;98618.16;5128573;27;20050;-92
2022/06/19 13:16:57;;;;;;;4.63;3.00;;;;;;;30.96;19.27;98593.72;5124417;27;20043;-93
2022/06/19 13:19:35;;;;;;;4.53;3.00;;;;;;;31.20;19.51;98600.16;5130143;27;20056;-92
2022/06/19 13:22:17;;;;;;;3.70;3.20;;;;;;;31.54;20.25;98588.88;5130512;27;20121;-94
2022/06/19 13:24:50;;;;;;;4.05;2.80;;;;;;;31.84;17.82;98594.56;5128183;27;20039;-91
2022/06/19 13:27:35;;;;;;;3.78;3.00;;;;;;;31.76;17.76;98597.34;5129952;27;20035;-92